createdAt,value
2023-03-10T00:02:32.936Z,21.75
2023-03-10T00:05:21.748Z,24.77
2023-03-10T00:08:10.258Z,28.17
2023-03-10T00:11:00.640Z,23.10
2023-03-10T00:13:49.111Z,30.58
2023-03-10T00:16:37.861Z,29.95
2023-03-10T00:19:26.660Z,25.10
2023-03-10T00:22:15.164Z,29.47
2023-03-10T00:25:04.160Z,24.15
2023-03-10T00:27:53.990Z,27.90
2023-03-10T00:30:42.461Z,23.63
2023-03-10T00:33:32.401Z,23.08
2023-03-10T00:36:22.418Z,28.17
2023-03-10T00:39:12.065Z,22.65
2023-03-10T00:42:01.150Z,23.20
2023-03-10T00:44:51.106Z,22.70
2023-03-10T00:47:39.564Z,22.25
2023-03-10T00:50:28.044Z,22.23
2023-03-10T00:53:16.654Z,22.50
2023-03-10T00:56:08.165Z,24.40
2023-03-10T00:58:58.541Z,24.83
2023-03-10T01:01:48.477Z,29.05
2023-03-10T01:04:36.885Z,24.17
2023-03-10T01:07:25.497Z,29.63
2023-03-10T01:10:14.437Z,28.67
2023-03-10T01:13:02.861Z,25.73
2023-03-10T01:15:51.670Z,30.50
2023-03-10T01:18:43.280Z,27.73
2023-03-10T01:21:34.900Z,25.25
2023-03-10T01:24:23.338Z,34.15
2023-03-10T01:27:11.814Z,27.35
2023-03-10T01:30:00.330Z,26.13
2023-03-10T01:32:48.898Z,28.38
2023-03-10T01:35:39.406Z,28.88
2023-03-10T01:38:28.134Z,27.83
2023-03-10T01:41:17.594Z,28.77
2023-03-10T01:44:06.376Z,27.67
2023-03-10T01:46:56.316Z,28.23
2023-03-10T01:49:46.485Z,31.95
2023-03-10T01:52:37.738Z,29.17
2023-03-10T01:55:31.871Z,29.20
2023-03-10T01:58:24.274Z,25.52
2023-03-10T02:01:14.345Z,25.00
2023-03-10T02:04:07.822Z,29.80
2023-03-10T02:06:57.702Z,27.33
2023-03-10T02:09:50.178Z,26.95
2023-03-10T02:12:38.575Z,32.57
2023-03-10T02:15:27.025Z,29.73
2023-03-10T02:18:17.253Z,27.48
2023-03-10T02:21:12.828Z,30.13
2023-03-10T02:24:07.256Z,25.33
2023-03-10T02:27:02.325Z,29.52
2023-03-10T02:29:59.922Z,27.50
2023-03-10T02:32:51.905Z,24.38
2023-03-10T02:35:40.511Z,29.77
2023-03-10T02:38:28.959Z,32.30
2023-03-10T02:41:22.583Z,29.13
2023-03-10T02:44:14.531Z,32.78
2023-03-10T02:47:04.406Z,28.15
2023-03-10T02:49:52.931Z,27.00
2023-03-10T02:52:46.405Z,30.88
2023-03-10T02:55:34.920Z,27.48
2023-03-10T02:58:24.691Z,25.95
2023-03-10T03:01:13.219Z,26.98
2023-03-10T03:04:03.510Z,26.92
2023-03-10T03:06:51.995Z,25.00
2023-03-10T03:09:40.441Z,28.20
2023-03-10T03:12:28.846Z,24.40
2023-03-10T03:15:17.657Z,24.83
2023-03-10T03:18:06.314Z,28.80
2023-03-10T03:20:56.173Z,25.35
2023-03-10T03:23:46.125Z,25.13
2023-03-10T03:26:34.601Z,26.75
2023-03-10T03:29:23.044Z,27.40
2023-03-10T03:32:11.597Z,24.30
2023-03-10T03:35:00.973Z,24.20
2023-03-10T03:37:50.940Z,24.00
2023-03-10T03:40:39.927Z,25.15
2023-03-10T03:43:29.604Z,26.38
2023-03-10T03:46:18.076Z,28.90
2023-03-10T03:49:06.510Z,24.20
2023-03-10T03:51:55.042Z,25.50
2023-03-10T03:54:44.869Z,25.35
2023-03-10T03:57:33.609Z,25.50
2023-03-10T04:00:25.186Z,25.48
2023-03-10T04:03:13.778Z,26.42
2023-03-10T04:06:02.204Z,27.13
2023-03-10T04:08:51.315Z,25.48
2023-03-10T04:11:41.204Z,25.33
2023-03-10T04:14:29.704Z,24.35
2023-03-10T04:17:18.299Z,24.58
2023-03-10T04:20:08.894Z,26.20
2023-03-10T04:22:57.384Z,26.63
2023-03-10T04:25:45.855Z,27.70
2023-03-10T04:28:36.140Z,27.75
2023-03-10T04:31:24.935Z,29.40
2023-03-10T04:34:13.457Z,28.77
2023-03-10T04:37:01.959Z,26.70
2023-03-10T04:39:50.670Z,26.45
2023-03-10T04:42:39.181Z,24.90
2023-03-10T04:45:29.100Z,30.02
2023-03-10T04:48:17.940Z,29.58
2023-03-10T04:51:08.610Z,26.23
2023-03-10T04:53:57.341Z,24.70
2023-03-10T04:56:46.098Z,27.80
2023-03-10T04:59:34.606Z,26.43
2023-03-10T05:02:24.492Z,26.10
2023-03-10T05:05:13.154Z,25.73
2023-03-10T05:08:01.702Z,24.73
2023-03-10T05:10:50.149Z,25.03
2023-03-10T05:13:38.711Z,30.00
2023-03-10T05:16:27.248Z,28.83
2023-03-10T05:19:17.291Z,27.58
2023-03-10T05:22:07.236Z,28.52
2023-03-10T05:24:55.719Z,31.60
2023-03-10T05:27:44.237Z,30.83
2023-03-10T05:30:32.761Z,31.10
2023-03-10T05:33:21.233Z,30.30
2023-03-10T05:36:14.660Z,26.65
2023-03-10T05:39:03.186Z,25.85
2023-03-10T05:41:51.585Z,31.02
2023-03-10T05:44:40.662Z,29.27
2023-03-10T05:47:29.033Z,25.70
2023-03-10T05:50:18.141Z,28.92
2023-03-10T05:53:07.975Z,24.63
2023-03-10T05:55:58.348Z,24.75
2023-03-10T05:58:47.725Z,28.05
2023-03-10T06:01:36.410Z,26.73
2023-03-10T06:04:25.509Z,27.40
2023-03-10T06:07:13.977Z,27.77
2023-03-10T06:10:03.893Z,26.67
2023-03-10T06:12:52.414Z,27.60
2023-03-10T06:15:40.884Z,28.27
2023-03-10T06:18:30.763Z,24.90
2023-03-10T06:21:19.219Z,24.70
2023-03-10T06:24:07.941Z,30.58
2023-03-10T06:26:57.800Z,25.60
2023-03-10T06:29:48.557Z,23.80
2023-03-10T06:32:37.072Z,23.65
2023-03-10T06:35:25.592Z,23.20
2023-03-10T06:38:14.222Z,22.92
2023-03-10T06:41:02.985Z,23.83
2023-03-10T06:43:52.937Z,29.92
2023-03-10T06:46:41.477Z,26.70
2023-03-10T06:49:30.746Z,30.98
2023-03-10T06:52:19.177Z,27.92
2023-03-10T06:55:08.639Z,26.55
2023-03-10T06:57:57.068Z,31.00
2023-03-10T07:00:47.058Z,24.92
2023-03-10T07:03:36.480Z,28.13
2023-03-10T07:06:25.992Z,29.60
2023-03-10T07:09:14.455Z,27.40
2023-03-10T07:12:03.014Z,31.55
2023-03-10T07:14:51.665Z,24.38
2023-03-10T07:17:41.616Z,23.63
2023-03-10T07:20:30.223Z,22.63
2023-03-10T07:23:18.934Z,29.47
2023-03-10T07:26:09.077Z,31.55
2023-03-10T07:28:57.554Z,29.95
2023-03-10T07:31:46.138Z,31.25
2023-03-10T07:34:36.065Z,29.15
2023-03-10T07:37:24.564Z,28.80
2023-03-10T07:40:13.566Z,29.52
2023-03-10T07:43:02.337Z,28.95
2023-03-10T07:45:50.863Z,28.30
2023-03-10T07:48:39.629Z,27.08
2023-03-10T07:51:29.571Z,25.98
2023-03-10T07:54:18.116Z,23.65
2023-03-10T07:57:06.597Z,24.40
2023-03-10T07:59:55.081Z,23.13
2023-03-10T08:02:43.773Z,20.57
2023-03-10T08:05:33.170Z,20.15
2023-03-10T08:08:23.676Z,18.98
2023-03-10T08:11:12.233Z,18.67
2023-03-10T08:14:00.817Z,18.45
2023-03-10T08:16:49.455Z,22.13
2023-03-10T08:19:39.574Z,17.45
2023-03-10T08:22:28.379Z,21.00
2023-03-10T08:25:18.384Z,19.60
2023-03-10T08:28:06.945Z,20.52
2023-03-10T08:31:04.181Z,19.33
2023-03-10T08:33:56.741Z,20.87
2023-03-10T08:36:45.892Z,23.58
2023-03-10T08:39:34.469Z,20.77
2023-03-10T08:42:24.394Z,19.67
2023-03-10T08:45:13.242Z,19.17
2023-03-10T08:48:01.775Z,21.80
2023-03-10T08:50:51.178Z,19.95
2023-03-10T08:53:40.409Z,18.58
2023-03-10T08:56:29.920Z,17.95
2023-03-10T08:59:19.837Z,15.30
2023-03-10T09:02:08.608Z,19.42
2023-03-10T09:04:57.155Z,20.88
2023-03-10T09:07:45.626Z,17.52
2023-03-10T09:10:34.274Z,15.63
2023-03-10T09:13:22.835Z,18.80
2023-03-10T09:16:13.530Z,19.67
2023-03-10T09:19:02.870Z,20.77
2023-03-10T09:21:51.370Z,20.75
2023-03-10T09:24:39.815Z,17.13
2023-03-10T09:27:28.475Z,23.05
2023-03-10T09:30:17.777Z,18.10
2023-03-10T09:33:10.500Z,14.70
2023-03-10T09:36:06.528Z,15.73
2023-03-10T09:38:55.568Z,13.88
2023-03-10T09:42:09.031Z,12.82
2023-03-10T09:45:09.197Z,16.25
2023-03-10T09:48:11.660Z,14.18
2023-03-10T09:51:03.605Z,11.30
2023-03-10T09:54:02.001Z,10.57
2023-03-10T09:56:50.403Z,10.90
2023-03-10T09:59:42.129Z,10.82
2023-03-10T10:02:34.119Z,10.30
2023-03-10T10:05:31.327Z,12.20
2023-03-10T10:08:26.063Z,11.80
2023-03-10T10:11:18.714Z,13.05
2023-03-10T10:14:28.399Z,14.63
2023-03-10T10:17:26.334Z,12.65
2023-03-10T10:20:21.643Z,15.15
2023-03-10T10:23:19.965Z,14.27
2023-03-10T10:26:13.316Z,17.00
2023-03-10T10:29:07.085Z,18.00
2023-03-10T10:32:09.087Z,14.65
2023-03-10T10:35:15.934Z,14.77
2023-03-10T10:38:06.964Z,15.68
2023-03-10T10:41:05.123Z,17.40
2023-03-10T10:43:58.072Z,15.90
2023-03-10T10:46:53.976Z,17.67
2023-03-10T10:49:42.440Z,21.73
2023-03-10T10:52:30.884Z,20.65
2023-03-10T10:55:28.120Z,17.85
2023-03-10T10:58:30.850Z,16.88
2023-03-10T11:01:19.386Z,15.25
2023-03-10T11:04:14.209Z,17.43
2023-03-10T11:07:12.738Z,19.65
2023-03-10T11:10:01.500Z,16.27
2023-03-10T11:13:00.782Z,20.20
2023-03-10T11:15:57.812Z,19.70
2023-03-10T11:18:52.232Z,20.75
2023-03-10T11:21:45.766Z,19.73
2023-03-10T11:24:39.398Z,19.65
2023-03-10T11:27:40.728Z,20.92
2023-03-10T11:30:33.349Z,20.23
2023-03-10T11:33:29.686Z,21.95
2023-03-10T11:36:25.199Z,20.33
2023-03-10T11:39:21.798Z,19.20
2023-03-10T11:42:17.529Z,18.70
2023-03-10T11:45:25.518Z,18.33
2023-03-10T11:48:46.503Z,20.10
2023-03-10T11:51:40.125Z,15.23
2023-03-10T11:54:34.445Z,17.95
2023-03-10T11:57:25.683Z,15.77
2023-03-10T12:00:23.766Z,17.57
2023-03-10T12:03:17.822Z,16.08
2023-03-10T12:06:12.811Z,14.60
2023-03-10T12:09:04.651Z,19.23
2023-03-10T12:11:53.928Z,18.13
2023-03-10T12:14:44.181Z,15.68
2023-03-10T12:17:32.900Z,15.77
2023-03-10T12:20:29.363Z,14.23
2023-03-10T12:23:41.764Z,12.65
2023-03-10T12:26:59.755Z,11.23
2023-03-10T12:29:48.485Z,9.20
2023-03-10T12:32:41.816Z,9.40
2023-03-10T12:35:37.794Z,9.07
2023-03-10T12:38:30.863Z,9.10
2023-03-10T12:41:45.976Z,8.10
2023-03-10T12:44:52.622Z,7.25
2023-03-10T12:47:55.846Z,7.33
2023-03-10T12:50:47.696Z,8.70
2023-03-10T12:53:40.264Z,9.00
2023-03-10T12:56:40.212Z,8.07
2023-03-10T12:59:36.857Z,5.70
2023-03-10T13:02:33.608Z,7.25
2023-03-10T13:05:26.716Z,8.55
2023-03-10T13:08:21.249Z,8.45
2023-03-10T13:11:30.199Z,7.30
2023-03-10T13:14:21.888Z,8.00
2023-03-10T13:17:22.844Z,8.43
2023-03-10T13:20:17.363Z,6.77
2023-03-10T13:23:07.534Z,9.23
2023-03-10T13:25:57.561Z,9.00
2023-03-10T13:28:52.879Z,7.75
2023-03-10T13:31:41.370Z,7.60
2023-03-10T13:34:32.359Z,7.40
2023-03-10T13:37:20.853Z,10.18
2023-03-10T13:40:16.190Z,7.95
2023-03-10T13:43:05.883Z,6.50
2023-03-10T13:45:56.739Z,7.30
2023-03-10T13:48:46.752Z,9.77
2023-03-10T13:51:36.723Z,8.68
2023-03-10T13:54:27.530Z,7.50
2023-03-10T13:57:21.047Z,9.18
2023-03-10T14:00:13.469Z,9.32
2023-03-10T14:03:02.613Z,7.97
2023-03-10T14:05:51.332Z,8.18
2023-03-10T14:08:39.802Z,8.70
2023-03-10T14:11:35.484Z,5.55
2023-03-10T14:14:30.235Z,5.82
2023-03-10T14:17:32.251Z,7.25
2023-03-10T14:20:28.158Z,8.13
2023-03-10T14:23:34.924Z,7.43
2023-03-10T14:26:23.483Z,6.10
2023-03-10T14:29:16.752Z,7.93
2023-03-10T14:32:07.623Z,8.10
2023-03-10T14:34:56.179Z,8.97
2023-03-10T14:37:46.476Z,7.13
2023-03-10T14:40:40.075Z,10.05
2023-03-10T14:43:29.981Z,10.60
2023-03-10T14:46:19.020Z,9.02
2023-03-10T14:49:10.183Z,9.70
2023-03-10T14:51:59.148Z,9.65
2023-03-10T14:54:48.172Z,8.07
2023-03-10T14:57:37.092Z,6.18
2023-03-10T15:00:26.095Z,4.07
2023-03-10T15:03:15.148Z,3.80
2023-03-10T15:06:06.029Z,2.53
2023-03-10T15:08:54.882Z,2.33
2023-03-10T15:11:43.630Z,2.42
2023-03-10T15:14:32.401Z,2.35
2023-03-10T15:17:21.232Z,2.63
2023-03-10T15:20:13.611Z,2.00
2023-03-10T15:23:03.525Z,2.08
2023-03-10T15:25:52.027Z,2.38
2023-03-10T15:28:41.081Z,2.47
2023-03-10T15:31:29.679Z,2.85
2023-03-10T15:34:19.649Z,2.42
2023-03-10T15:37:09.088Z,2.88
2023-03-10T15:39:59.025Z,2.30
2023-03-10T15:42:48.307Z,2.80
2023-03-10T15:45:41.539Z,2.72
2023-03-10T15:48:29.972Z,3.17
2023-03-10T15:51:18.604Z,3.17
2023-03-10T15:54:07.400Z,3.00
2023-03-10T15:56:57.227Z,3.30
2023-03-10T15:59:45.916Z,3.53
2023-03-10T16:02:34.368Z,4.10
2023-03-10T16:05:23.292Z,3.40
2023-03-10T16:08:12.020Z,3.60
2023-03-10T16:11:01.016Z,3.38
2023-03-10T16:13:51.159Z,3.90
2023-03-10T16:16:39.933Z,3.70
2023-03-10T16:19:29.352Z,3.63
2023-03-10T16:22:18.111Z,3.90
2023-03-10T16:25:07.335Z,4.03
2023-03-10T16:27:56.082Z,4.00
2023-03-10T16:30:49.947Z,3.55
2023-03-10T16:33:38.714Z,3.97
2023-03-10T16:36:28.136Z,3.67
2023-03-10T16:39:17.865Z,3.60
2023-03-10T16:42:06.976Z,3.20
2023-03-10T16:44:57.421Z,4.03
2023-03-10T16:47:49.194Z,4.05
2023-03-10T16:50:37.926Z,3.88
2023-03-10T16:53:26.604Z,3.22
2023-03-10T16:56:15.508Z,4.03
2023-03-10T16:59:04.018Z,3.72
2023-03-10T17:01:52.633Z,3.70
2023-03-10T17:04:42.452Z,3.85
2023-03-10T17:07:31.169Z,3.80
2023-03-10T17:10:19.800Z,3.60
2023-03-10T17:13:08.277Z,3.40
2023-03-10T17:15:56.775Z,3.50
2023-03-10T17:18:45.970Z,4.15
2023-03-10T17:21:39.316Z,3.67
2023-03-10T17:24:27.988Z,4.07
2023-03-10T17:27:16.415Z,3.38
2023-03-10T17:30:05.480Z,3.60
2023-03-10T17:32:54.038Z,4.57
2023-03-10T17:35:43.056Z,4.63
2023-03-10T17:38:33.309Z,4.78
2023-03-10T17:41:21.996Z,3.70
2023-03-10T17:44:11.214Z,3.40
2023-03-10T17:46:59.933Z,3.53
2023-03-10T17:49:48.686Z,3.70
2023-03-10T17:52:37.445Z,3.50
2023-03-10T17:55:27.543Z,4.18
2023-03-10T17:58:16.205Z,3.50
2023-03-10T18:01:08.459Z,4.90
2023-03-10T18:03:57.396Z,3.15
2023-03-10T18:06:46.160Z,4.40
2023-03-10T18:09:34.940Z,3.63
2023-03-10T18:12:25.055Z,5.60
2023-03-10T18:15:13.941Z,5.78
2023-03-10T18:18:02.344Z,6.20
2023-03-10T18:20:51.112Z,5.90
2023-03-10T18:23:39.595Z,6.15
2023-03-10T18:26:30.357Z,5.13
2023-03-10T18:29:20.220Z,4.82
2023-03-10T18:32:08.679Z,6.20
2023-03-10T18:34:59.159Z,6.40
2023-03-10T18:37:47.654Z,6.20
2023-03-10T18:40:36.262Z,6.15
2023-03-10T18:43:25.103Z,7.07
2023-03-10T18:46:15.370Z,6.85
2023-03-10T18:49:03.953Z,6.78
2023-03-10T18:51:52.414Z,7.03
2023-03-10T18:54:40.862Z,6.30
2023-03-10T18:57:29.581Z,6.28
2023-03-10T19:00:19.222Z,6.70
2023-03-10T19:03:10.552Z,6.30
2023-03-10T19:05:59.462Z,5.90
2023-03-10T19:08:47.939Z,5.88
2023-03-10T19:11:37.167Z,5.90
2023-03-10T19:14:25.608Z,5.40
2023-03-10T19:17:14.165Z,4.60
2023-03-10T19:20:05.695Z,5.22
2023-03-10T19:22:54.271Z,4.13
2023-03-10T19:25:43.119Z,4.05
2023-03-10T19:28:31.612Z,4.63
2023-03-10T19:31:20.105Z,3.33
2023-03-10T19:34:08.641Z,3.50
2023-03-10T19:36:58.402Z,2.85
2023-03-10T19:39:46.915Z,2.63
2023-03-10T19:42:35.781Z,2.13
2023-03-10T19:45:24.263Z,2.47
2023-03-10T19:48:12.923Z,2.30
2023-03-10T19:51:01.583Z,1.70
2023-03-10T19:53:52.453Z,1.90
2023-03-10T19:56:40.970Z,1.90
2023-03-10T19:59:29.393Z,2.13
2023-03-10T20:02:19.177Z,1.40
2023-03-10T20:05:08.996Z,1.60
2023-03-10T20:07:57.565Z,1.70
2023-03-10T20:10:47.706Z,1.70
2023-03-10T20:13:36.192Z,1.65
2023-03-10T20:16:27.593Z,1.93
2023-03-10T20:19:16.336Z,1.50
2023-03-10T20:22:04.916Z,1.40
2023-03-10T20:24:53.559Z,1.50
2023-03-10T20:27:43.809Z,1.10
2023-03-10T20:30:32.357Z,1.08
2023-03-10T20:33:21.514Z,0.90
2023-03-10T20:36:13.857Z,1.00
2023-03-10T20:39:02.425Z,0.80
2023-03-10T20:41:51.056Z,1.10
2023-03-10T20:44:41.004Z,1.30
2023-03-10T20:47:30.229Z,1.42
2023-03-10T20:50:19.354Z,1.42
2023-03-10T20:53:07.902Z,1.83
2023-03-10T20:55:56.311Z,1.67
2023-03-10T20:58:44.968Z,2.00
2023-03-10T21:01:39.769Z,1.80
2023-03-10T21:04:28.418Z,1.60
2023-03-10T21:07:16.959Z,1.63
2023-03-10T21:10:07.414Z,2.50
2023-03-10T21:12:56.052Z,1.80
2023-03-10T21:15:44.665Z,1.70
2023-03-10T21:18:34.933Z,1.47
2023-03-10T21:21:23.658Z,1.50
2023-03-10T21:24:13.017Z,1.48
2023-03-10T21:27:01.633Z,1.80
2023-03-10T21:29:50.073Z,1.52
2023-03-10T21:32:39.010Z,1.70
2023-03-10T21:35:34.126Z,1.40
2023-03-10T21:38:22.690Z,1.05
2023-03-10T21:41:13.445Z,1.15
2023-03-10T21:44:03.268Z,1.10
2023-03-10T21:46:51.977Z,1.10
2023-03-10T21:49:40.722Z,1.05
2023-03-10T21:52:30.604Z,1.20
2023-03-10T21:55:22.879Z,0.85
2023-03-10T21:58:11.397Z,0.80
2023-03-10T22:00:59.823Z,0.80
2023-03-10T22:03:48.247Z,0.70
2023-03-10T22:06:36.752Z,0.85
2023-03-10T22:09:26.782Z,0.70
2023-03-10T22:12:15.903Z,0.80
2023-03-10T22:15:04.732Z,0.80
2023-03-10T22:17:55.348Z,0.60
2023-03-10T22:20:43.783Z,0.50
2023-03-10T22:23:32.257Z,0.70
2023-03-10T22:26:22.126Z,0.70
2023-03-10T22:29:10.626Z,0.47
2023-03-10T22:31:59.087Z,0.40
2023-03-10T22:34:47.528Z,0.38
2023-03-10T22:37:35.997Z,1.25
2023-03-10T22:40:25.505Z,0.43
2023-03-10T22:43:15.431Z,0.60
2023-03-10T22:46:09.501Z,0.60
2023-03-10T22:48:58.079Z,0.40
2023-03-10T22:51:46.568Z,0.32
2023-03-10T22:54:36.457Z,0.40
2023-03-10T22:57:24.883Z,0.50
2023-03-10T23:00:19.681Z,0.60
2023-03-10T23:03:11.477Z,0.50
2023-03-10T23:06:01.948Z,0.50
2023-03-10T23:08:50.392Z,0.40
2023-03-10T23:11:39.026Z,0.52
2023-03-10T23:14:27.671Z,0.50
2023-03-10T23:17:17.745Z,0.40
2023-03-10T23:20:07.597Z,0.50
2023-03-10T23:22:57.100Z,0.60
2023-03-10T23:25:47.449Z,0.50
2023-03-10T23:28:35.957Z,0.57
2023-03-10T23:31:24.515Z,0.52
2023-03-10T23:34:14.371Z,0.52
2023-03-10T23:37:02.994Z,0.82
2023-03-10T23:39:51.470Z,0.60
2023-03-10T23:42:40.138Z,0.50
2023-03-10T23:45:30.547Z,0.60
2023-03-10T23:48:19.914Z,0.50
2023-03-10T23:51:14.195Z,0.50
2023-03-10T23:54:02.650Z,0.25
2023-03-10T23:56:51.433Z,0.40
2023-03-10T23:59:41.529Z,0.57
